Time;durP1;ratioP1;P1;durP2;ratioP2;P2;SDS_P1;SDS_P2;PMS_P1;PMS_P2;Temp;Humidity;BMP_temperature;BMP_pressure;BME280_temperature;BME280_humidity;BME280_pressure;Samples;Min_cycle;Max_cycle;Signal;HPM_P1;HPM_P2
2022/04/07 00:01:42;;;;;;;7.32;1.92;;;;;;;8.98;89.72;99195.81;5070876;28;20422;-83
2022/04/07 00:04:07;;;;;;;5.32;1.90;;;;;;;8.97;89.88;99194.16;5070090;28;20034;-81
2022/04/07 00:06:33;;;;;;;5.50;1.65;;;;;;;8.96;89.70;99182.00;5070808;28;20474;-83
2022/04/07 00:09:06;;;;;;;5.80;1.80;;;;;;;8.98;89.15;99177.44;5064468;28;20009;-83
2022/04/07 00:11:31;;;;;;;6.15;1.80;;;;;;;8.92;89.25;99165.75;5070419;28;20024;-83
2022/04/07 00:13:56;;;;;;;8.80;1.80;;;;;;;8.94;88.97;99168.22;5070684;28;20039;-83
2022/04/07 00:16:33;;;;;;;5.97;1.83;;;;;;;8.87;89.09;99154.84;5065774;28;20097;-83
2022/04/07 00:19:09;;;;;;;5.45;1.88;;;;;;;8.89;89.19;99170.44;5063285;28;20467;-83
2022/04/07 00:21:50;;;;;;;5.10;1.75;;;;;;;8.88;88.65;99167.00;5024242;28;20040;-83
2022/04/07 00:24:15;;;;;;;7.22;2.08;;;;;;;8.93;88.39;99166.56;5052265;28;20039;-83
2022/04/07 00:26:46;;;;;;;5.35;1.77;;;;;;;8.85;88.26;99148.09;5031428;28;20111;-83
2022/04/07 00:29:12;;;;;;;8.73;2.13;;;;;;;8.91;88.41;99147.53;5059659;28;20036;-83
2022/04/07 00:31:40;;;;;;;7.00;1.85;;;;;;;8.91;88.54;99140.47;5047515;28;20033;-83
2022/04/07 00:34:06;;;;;;;6.93;2.00;;;;;;;8.92;89.08;99141.31;5031319;28;20037;-82
2022/04/07 00:36:32;;;;;;;5.63;1.90;;;;;;;8.94;88.93;99126.25;5047956;28;20024;-83
2022/04/07 00:39:04;;;;;;;7.28;1.80;;;;;;;8.91;89.48;99122.13;5047760;28;20033;-82
2022/04/07 00:41:30;;;;;;;6.93;2.00;;;;;;;8.86;89.02;99107.78;5033613;28;20078;-84
2022/04/07 00:43:58;;;;;;;7.63;1.98;;;;;;;8.90;88.61;99107.34;5055101;28;20045;-81
2022/04/07 00:46:23;;;;;;;6.78;2.10;;;;;;;8.88;88.38;99096.19;5034413;28;20049;-81
2022/04/07 00:48:49;;;;;;;7.93;2.33;;;;;;;8.91;88.70;99100.31;5051474;28;20064;-83
2022/04/07 00:51:15;;;;;;;7.35;2.30;;;;;;;8.89;89.43;99095.22;5062409;28;20035;-81
2022/04/07 00:53:40;;;;;;;6.53;2.22;;;;;;;8.88;89.96;99092.75;5062426;28;20024;-83
2022/04/07 00:56:08;;;;;;;7.15;2.63;;;;;;;8.79;89.85;99087.38;5062895;28;20023;-80
2022/04/07 00:58:34;;;;;;;10.43;2.65;;;;;;;8.82;90.21;99096.78;5068457;28;20087;-83
2022/04/07 01:01:09;;;;;;;9.73;2.55;;;;;;;8.83;90.05;99094.97;5053113;28;20020;-83
2022/04/07 01:03:37;;;;;;;7.25;2.53;;;;;;;8.86;91.15;99094.69;5059188;28;20448;-83
2022/04/07 01:06:02;;;;;;;7.72;2.63;;;;;;;8.85;90.60;99090.41;5051399;28;20029;-83
2022/04/07 01:08:28;;;;;;;8.88;2.50;;;;;;;8.81;91.22;99084.63;5048646;28;20028;-81
2022/04/07 01:10:54;;;;;;;9.20;2.65;;;;;;;8.75;91.60;99058.97;5056918;28;20069;-83
2022/04/07 01:13:19;;;;;;;8.30;2.78;;;;;;;8.73;92.09;99060.91;5087853;28;20056;-80
2022/04/07 01:15:44;;;;;;;11.65;3.08;;;;;;;8.74;91.73;99066.00;5088242;28;20532;-83
2022/04/07 01:18:10;;;;;;;10.60;2.72;;;;;;;8.75;91.92;99070.28;5090420;28;20028;-83
2022/04/07 01:20:36;;;;;;;9.15;2.65;;;;;;;8.73;91.96;99060.91;5082309;28;20028;-81
2022/04/07 01:23:11;;;;;;;8.75;2.80;;;;;;;8.72;91.98;99046.16;5054057;28;20115;-80
2022/04/07 01:25:37;;;;;;;7.70;2.58;;;;;;;8.66;91.54;99037.06;5063863;28;20031;-81
2022/04/07 01:28:02;;;;;;;9.43;2.40;;;;;;;8.72;91.04;99041.72;5068909;28;20103;-80
2022/04/07 01:30:31;;;;;;;8.45;2.30;;;;;;;8.70;91.14;99025.31;5069700;28;20473;-81
2022/04/07 01:32:58;;;;;;;9.82;2.65;;;;;;;8.73;90.21;99022.41;5069861;28;20039;-84
2022/04/07 01:35:24;;;;;;;8.43;2.58;;;;;;;8.74;90.08;99018.00;5068797;28;20033;-83
2022/04/07 01:37:52;;;;;;;8.82;2.38;;;;;;;8.76;90.14;99019.50;5069433;28;20476;-83
2022/04/07 01:40:22;;;;;;;9.48;2.42;;;;;;;8.70;89.38;99000.91;5053489;28;20060;-83
2022/04/07 01:42:52;;;;;;;8.75;2.45;;;;;;;8.71;89.70;98982.41;5069797;28;20392;-83
2022/04/07 01:45:18;;;;;;;10.77;2.50;;;;;;;8.74;89.17;98983.91;5068019;28;20029;-81
2022/04/07 01:47:45;;;;;;;10.65;2.63;;;;;;;8.73;89.30;98987.50;5068073;28;20531;-81
2022/04/07 01:50:11;;;;;;;9.95;2.60;;;;;;;8.77;90.23;98986.22;5068143;28;20373;-82
2022/04/07 01:52:48;;;;;;;7.93;2.50;;;;;;;8.74;89.96;98979.47;5069350;28;20054;-83
2022/04/07 01:55:32;;;;;;;7.65;2.45;;;;;;;8.76;89.66;98974.91;5056647;28;20087;-81
2022/04/07 02:01:31;;;;;;;6.95;2.55;;;;;;;8.73;89.61;98977.00;5043890;28;20048;-82
2022/04/07 02:03:57;;;;;;;10.82;2.38;;;;;;;8.82;89.77;98965.66;5058108;28;20158;-82
2022/04/07 02:06:25;;;;;;;10.23;2.40;;;;;;;8.76;90.95;98963.59;5068697;28;20024;-81
2022/04/07 02:09:12;;;;;;;9.18;2.65;;;;;;;8.78;91.19;98967.72;5061244;28;20032;-83
2022/04/07 02:11:41;;;;;;;12.65;3.03;;;;;;;8.74;90.53;98963.75;5057194;28;20048;-82
2022/04/07 02:14:06;;;;;;;14.38;2.65;;;;;;;8.74;91.00;98958.50;5065841;28;20370;-81
2022/04/07 02:17:23;;;;;;;11.77;2.78;;;;;;;8.77;90.52;98958.22;5059030;28;20079;-82
2022/04/07 02:19:50;;;;;;;11.25;2.75;;;;;;;8.75;90.22;98946.22;5057352;28;20032;-83
2022/04/07 02:22:17;;;;;;;9.88;2.75;;;;;;;8.73;89.91;98932.44;5062813;28;20435;-83
2022/04/07 02:24:46;;;;;;;10.60;2.42;;;;;;;8.76;89.97;98940.81;5068837;28;20082;-82
2022/04/07 02:27:12;;;;;;;10.68;3.38;;;;;;;8.81;89.52;98945.66;5069333;28;20028;-81
2022/04/07 02:29:42;;;;;;;10.55;2.38;;;;;;;8.76;90.07;98945.25;5068431;28;20012;-81
2022/04/07 02:32:09;;;;;;;10.38;2.67;;;;;;;8.83;89.33;98935.00;5067220;28;20024;-83
2022/04/07 02:34:34;;;;;;;12.57;2.80;;;;;;;8.82;89.73;98942.06;5069901;28;20021;-83
2022/04/07 02:37:02;;;;;;;9.45;2.58;;;;;;;8.84;88.53;98932.25;5069006;28;20357;-83
2022/04/07 02:39:27;;;;;;;12.15;2.55;;;;;;;8.87;88.52;98931.13;5061820;28;20025;-82
2022/04/07 02:41:56;;;;;;;11.68;2.60;;;;;;;8.85;88.15;98917.34;5053676;28;20029;-83
2022/04/07 02:44:27;;;;;;;10.63;2.85;;;;;;;8.93;87.89;98927.88;5052842;28;20028;-81
2022/04/07 02:46:54;;;;;;;12.38;2.80;;;;;;;8.86;87.15;98918.97;5066859;28;20468;-83
2022/04/07 02:49:24;;;;;;;12.73;2.58;;;;;;;8.90;87.34;98909.84;5068410;28;20373;-83
2022/04/07 02:52:26;;;;;;;9.32;2.50;;;;;;;8.92;86.91;98892.16;5050430;28;20039;-82
2022/04/07 02:54:52;;;;;;;11.25;2.75;;;;;;;8.93;86.73;98883.31;5053681;28;20025;-81
2022/04/07 02:57:30;;;;;;;8.93;2.72;;;;;;;8.91;86.30;98874.78;5064774;28;20314;-83
2022/04/07 03:00:22;;;;;;;12.30;2.97;;;;;;;8.93;86.32;98873.63;5045973;28;20167;-83
2022/04/07 03:02:58;;;;;;;10.02;2.67;;;;;;;9.04;86.01;98885.69;5055550;28;20029;-82
2022/04/07 03:05:29;;;;;;;12.23;3.03;;;;;;;9.00;85.94;98868.59;5054109;28;20021;-83
2022/04/07 03:08:03;;;;;;;10.68;2.70;;;;;;;9.03;85.63;98861.25;5071492;28;20050;-83
2022/04/07 03:11:16;;;;;;;12.05;2.70;;;;;;;9.11;86.09;98855.25;5060799;28;20033;-83
2022/04/07 03:13:44;;;;;;;12.35;2.97;;;;;;;9.11;85.27;98850.00;5052091;28;20123;-81
2022/04/07 03:16:16;;;;;;;7.97;2.72;;;;;;;9.03;85.27;98831.56;5071934;28;20028;-83
2022/04/07 03:18:46;;;;;;;9.38;2.85;;;;;;;9.07;84.84;98823.25;5080364;28;20389;-82
2022/04/07 03:21:36;;;;;;;11.40;3.30;;;;;;;9.13;85.15;98821.81;5053883;28;20032;-83
2022/04/07 03:24:01;;;;;;;8.77;2.50;;;;;;;9.12;84.40;98807.03;5058334;28;20248;-83
2022/04/07 03:26:43;;;;;;;9.35;2.55;;;;;;;9.16;84.16;98803.13;5071925;28;20086;-82
2022/04/07 03:29:09;;;;;;;11.73;2.90;;;;;;;9.10;83.93;98796.69;5054498;28;20134;-83
2022/04/07 03:32:09;;;;;;;9.40;2.60;;;;;;;9.14;83.39;98807.72;5071042;28;20287;-82
2022/04/07 03:34:36;;;;;;;12.00;2.47;;;;;;;9.22;83.51;98814.84;5054319;28;20028;-82
2022/04/07 03:37:03;;;;;;;10.45;2.63;;;;;;;9.16;83.42;98795.25;5069745;28;20028;-83
2022/04/07 03:39:29;;;;;;;13.70;2.50;;;;;;;9.21;82.87;98800.06;5076093;28;20020;-84
2022/04/07 03:41:54;;;;;;;9.18;2.50;;;;;;;9.24;83.23;98800.56;5090826;28;20032;-84
2022/04/07 03:44:20;;;;;;;11.25;2.35;;;;;;;9.25;82.93;98796.97;5083134;28;20025;-83
2022/04/07 03:46:45;;;;;;;10.55;2.42;;;;;;;9.23;83.13;98785.00;5051700;28;20120;-81
2022/04/07 03:49:10;;;;;;;8.73;2.40;;;;;;;9.21;83.21;98781.69;5051068;28;20024;-83
2022/04/07 03:51:42;;;;;;;9.50;2.35;;;;;;;9.22;82.92;98773.66;5052874;28;20024;-81
2022/04/07 03:54:08;;;;;;;12.30;2.63;;;;;;;9.22;82.72;98773.66;5078216;28;20425;-83
2022/04/07 03:56:40;;;;;;;10.80;2.97;;;;;;;9.21;82.88;98756.28;5056429;28;20120;-83
2022/04/07 03:59:17;;;;;;;8.98;2.25;;;;;;;9.21;82.37;98737.91;5064998;28;20441;-82
2022/04/07 04:01:44;;;;;;;10.82;2.30;;;;;;;9.29;82.85;98758.94;5057039;28;20136;-80
2022/04/07 04:04:17;;;;;;;10.90;2.50;;;;;;;9.29;82.90;98745.81;5070374;28;20036;-81
2022/04/07 04:06:52;;;;;;;9.85;2.30;;;;;;;9.28;82.83;98725.81;5065780;28;20036;-83
2022/04/07 04:10:02;;;;;;;10.18;2.65;;;;;;;9.28;82.62;98728.44;5052353;28;20123;-82
2022/04/07 04:13:04;;;;;;;6.28;2.15;;;;;;;9.28;82.61;98709.25;5064113;28;20421;-83
2022/04/07 04:15:41;;;;;;;8.85;2.72;;;;;;;9.28;82.60;98704.00;4971882;28;20582;-83
2022/04/07 04:18:06;;;;;;;6.97;2.00;;;;;;;9.19;82.46;98679.50;4955015;28;20081;-84
2022/04/07 04:20:42;;;;;;;9.45;2.42;;;;;;;9.22;82.17;98665.28;5029957;28;20040;-83
2022/04/07 04:23:25;;;;;;;7.82;2.17;;;;;;;9.23;82.71;98649.38;5055233;28;20032;-82
2022/04/07 04:26:07;;;;;;;8.00;2.03;;;;;;;9.31;82.26;98657.25;5032878;28;20037;-83
2022/04/07 04:28:53;;;;;;;6.10;2.00;;;;;;;9.23;82.76;98644.13;5057509;28;20108;-82
2022/04/07 04:31:20;;;;;;;5.93;2.00;;;;;;;9.27;81.78;98634.94;5036898;28;20424;-83
2022/04/07 04:33:45;;;;;;;8.02;2.00;;;;;;;9.26;81.84;98620.19;5059121;28;20087;-82
2022/04/07 04:36:11;;;;;;;3.53;1.77;;;;;;;9.36;81.83;98649.72;5049846;28;20017;-83
2022/04/07 04:38:56;;;;;;;6.60;1.90;;;;;;;9.32;82.41;98616.91;5054895;28;20028;-83
2022/04/07 04:41:33;;;;;;;5.53;1.73;;;;;;;9.38;82.08;98641.69;5063777;28;20029;-81
2022/04/07 04:47:40;;;;;;;6.75;1.60;;;;;;;9.34;83.60;98619.38;4969001;28;20109;-83
2022/04/07 04:50:17;;;;;;;;;;;;;;;9.41;84.06;98631.69;4969247;28;20507;-81
2022/04/07 04:52:52;;;;;;;4.88;1.73;;;;;;;9.25;84.88;98597.56;5046850;28;19912;-83
2022/04/07 04:55:26;;;;;;;5.25;1.80;;;;;;;9.24;85.57;98598.53;5059224;28;20013;-83
2022/04/07 04:57:52;;;;;;;3.70;1.40;;;;;;;9.24;86.53;98595.91;5061077;28;20016;-82
2022/04/07 05:00:23;;;;;;;2.53;1.40;;;;;;;9.26;86.58;98607.06;5072385;28;20036;-83
2022/04/07 05:02:52;;;;;;;2.53;1.63;;;;;;;9.21;86.74;98571.81;5068332;28;20056;-83
2022/04/07 05:05:20;;;;;;;4.75;1.52;;;;;;;9.13;87.56;98553.41;5059674;28;20012;-80
2022/04/07 05:07:49;;;;;;;4.68;1.40;;;;;;;9.09;87.67;98532.72;5069557;28;20028;-83
2022/04/07 05:10:30;;;;;;;3.88;1.30;;;;;;;9.13;87.53;98548.97;5068034;28;20020;-81
2022/04/07 05:13:13;;;;;;;4.30;1.50;;;;;;;9.10;87.31;98554.53;5065016;28;20020;-80
2022/04/07 05:15:41;;;;;;;3.33;1.50;;;;;;;9.10;87.48;98550.13;5063312;28;20020;-81
2022/04/07 05:18:07;;;;;;;4.65;1.52;;;;;;;9.03;88.07;98538.63;5069228;28;20103;-81
2022/04/07 05:20:39;;;;;;;4.53;1.52;;;;;;;9.05;88.22;98533.22;5057250;28;20108;-83
2022/04/07 05:23:08;;;;;;;;;;;;;;;9.15;87.53;98523.38;5056046;28;20024;-83
2022/04/07 05:25:33;;;;;;;5.70;1.60;;;;;;;9.03;88.29;98522.88;5069163;28;19948;-81
2022/04/07 05:27:58;;;;;;;3.97;1.35;;;;;;;9.06;88.90;98527.00;5055879;28;20057;-83
2022/04/07 05:30:24;;;;;;;4.28;1.52;;;;;;;8.99;88.78;98500.59;5055221;28;20024;-83
2022/04/07 05:32:55;;;;;;;4.93;1.90;;;;;;;8.99;89.31;98512.88;5061537;28;20435;-83
2022/04/07 05:35:30;;;;;;;5.72;1.98;;;;;;;8.96;90.25;98495.66;5069194;28;20024;-83
2022/04/07 05:37:59;;;;;;;5.75;2.03;;;;;;;8.94;90.92;98505.50;5064703;28;20024;-83
2022/04/07 05:40:25;;;;;;;5.20;2.10;;;;;;;8.86;91.99;98483.69;5055796;28;20025;-83
2022/04/07 05:42:50;;;;;;;6.25;2.63;;;;;;;8.83;93.42;98470.91;5051006;28;20040;-82
2022/04/07 05:45:15;;;;;;;5.10;2.30;;;;;;;8.74;93.87;98459.56;5060181;28;20021;-83
2022/04/07 05:47:41;;;;;;;7.63;2.72;;;;;;;8.74;94.33;98481.34;5051924;28;20029;-81
2022/04/07 05:50:08;;;;;;;6.55;2.70;;;;;;;8.67;95.09;98469.84;5066611;28;20205;-80
2022/04/07 05:52:34;;;;;;;6.05;3.10;;;;;;;8.64;94.73;98443.97;5057481;28;20028;-83
2022/04/07 05:55:03;;;;;;;9.93;2.88;;;;;;;8.63;95.33;98437.09;5062226;28;20078;-82
2022/04/07 05:57:32;;;;;;;5.93;3.08;;;;;;;8.62;95.46;98445.09;5061791;28;20113;-83
2022/04/07 06:00:12;;;;;;;7.78;2.95;;;;;;;8.61;95.83;98433.81;5062974;28;20040;-80
2022/04/07 06:02:38;;;;;;;8.25;2.97;;;;;;;8.57;96.23;98427.25;5061588;28;20032;-80
2022/04/07 06:05:05;;;;;;;8.15;2.97;;;;;;;8.57;95.46;98423.81;5068096;28;20108;-81
2022/04/07 06:07:30;;;;;;;8.95;3.20;;;;;;;8.55;95.51;98418.72;5058350;28;20035;-83
2022/04/07 06:09:56;;;;;;;8.30;3.25;;;;;;;8.53;96.06;98407.59;5051740;28;20024;-83
2022/04/07 06:12:21;;;;;;;7.03;3.33;;;;;;;8.51;96.45;98417.41;5059603;28;20021;-82
2022/04/07 06:14:46;;;;;;;10.23;3.78;;;;;;;8.48;96.31;98389.72;5065513;28;20024;-82
2022/04/07 06:17:31;;;;;;;7.20;3.65;;;;;;;8.49;96.46;98393.16;5077586;28;20107;-81
2022/04/07 06:20:03;;;;;;;6.10;3.20;;;;;;;8.44;96.03;98385.78;5052374;28;20198;-82
2022/04/07 06:22:28;;;;;;;8.55;3.38;;;;;;;8.46;96.58;98377.75;5067918;28;20024;-82
2022/04/07 06:24:54;;;;;;;7.70;3.15;;;;;;;8.43;96.69;98357.13;5068656;28;20025;-82
2022/04/07 06:27:19;;;;;;;11.05;3.30;;;;;;;8.41;97.01;98359.91;5070193;28;20021;-82
2022/04/07 06:29:45;;;;;;;11.50;3.03;;;;;;;8.40;97.33;98354.81;5067437;28;20036;-80
2022/04/07 06:32:11;;;;;;;8.13;3.15;;;;;;;8.38;97.17;98359.38;5068868;28;20025;-83
2022/04/07 06:34:39;;;;;;;7.15;2.78;;;;;;;8.33;97.56;98338.06;5061777;28;20028;-83
2022/04/07 06:37:05;;;;;;;6.53;2.85;;;;;;;8.34;97.45;98342.34;5066739;28;20032;-83
2022/04/07 06:39:30;;;;;;;4.28;2.28;;;;;;;8.35;97.49;98336.13;5055592;28;20021;-84
2022/04/07 06:41:56;;;;;;;7.25;2.40;;;;;;;8.35;97.86;98321.22;5063414;28;20175;-83
2022/04/07 06:44:21;;;;;;;6.40;1.92;;;;;;;8.32;97.54;98313.66;5071248;28;20024;-83
2022/04/07 06:46:46;;;;;;;8.48;2.20;;;;;;;8.33;97.98;98304.00;5069531;28;20460;-83
2022/04/07 06:49:15;;;;;;;7.07;1.95;;;;;;;8.26;97.69;98285.50;5072618;28;20047;-80
2022/04/07 06:51:41;;;;;;;7.68;1.80;;;;;;;8.31;98.13;98287.63;5065176;28;20151;-83
2022/04/07 06:54:30;;;;;;;9.52;2.28;;;;;;;8.28;98.50;98275.66;5071395;28;20115;-82
2022/04/07 06:56:55;;;;;;;7.10;2.05;;;;;;;8.28;98.39;98273.06;5061193;28;20029;-81
2022/04/07 06:59:21;;;;;;;10.00;1.88;;;;;;;8.27;98.61;98263.56;5072360;28;20082;-79
2022/04/07 07:01:50;;;;;;;8.45;2.10;;;;;;;8.26;98.89;98250.63;5056694;28;20061;-82
2022/04/07 07:04:15;;;;;;;7.75;1.95;;;;;;;8.26;99.05;98253.25;5053966;28;20074;-82
2022/04/07 07:06:40;;;;;;;6.50;1.90;;;;;;;8.27;99.33;98249.63;5071732;28;20099;-82
2022/04/07 07:09:05;;;;;;;7.15;2.25;;;;;;;8.27;99.80;98236.53;5064849;28;20492;-83
2022/04/07 07:11:32;;;;;;;7.50;2.00;;;;;;;8.26;99.90;98229.66;5068909;28;20025;-80
2022/04/07 07:13:58;;;;;;;6.38;1.98;;;;;;;8.26;100.00;98222.63;5068544;28;20373;-79
2022/04/07 07:16:23;;;;;;;6.10;1.80;;;;;;;8.24;100.00;98208.06;5072316;28;20073;-82
2022/04/07 07:18:51;;;;;;;6.93;2.08;;;;;;;8.20;100.00;98183.19;5065707;28;20051;-82
2022/04/07 07:21:16;;;;;;;5.80;1.90;;;;;;;8.26;100.00;98185.97;5063011;28;20064;-81
2022/04/07 07:23:41;;;;;;;10.60;2.20;;;;;;;8.27;100.00;98178.91;5073253;28;20067;-82
2022/04/07 07:26:12;;;;;;;5.35;1.98;;;;;;;8.27;100.00;98168.44;5071515;28;20035;-82
2022/04/07 07:28:43;;;;;;;5.15;1.95;;;;;;;8.21;100.00;98151.59;5059635;28;20025;-82
2022/04/07 07:31:09;;;;;;;6.53;1.92;;;;;;;8.28;100.00;98149.13;5070959;28;20025;-82
2022/04/07 07:33:34;;;;;;;8.23;2.00;;;;;;;8.31;100.00;98143.53;5066014;28;20028;-80
2022/04/07 07:36:00;;;;;;;6.68;2.38;;;;;;;8.34;100.00;98157.16;5070602;28;20016;-80
2022/04/07 07:38:28;;;;;;;5.68;2.10;;;;;;;8.39;100.00;98127.84;5065079;28;20055;-80
2022/04/07 07:40:54;;;;;;;4.50;2.20;;;;;;;8.41;100.00;98115.44;5068791;28;20028;-79
2022/04/07 07:43:21;;;;;;;4.95;2.30;;;;;;;8.45;100.00;98145.53;5072926;28;20032;-82
2022/04/07 07:45:46;;;;;;;6.05;2.30;;;;;;;8.48;100.00;98184.50;5072109;28;20032;-82
2022/04/07 07:48:28;;;;;;;5.80;1.40;;;;;;;8.34;100.00;98326.63;5070124;28;20024;-82
2022/04/07 07:50:54;;;;;;;6.50;0.93;;;;;;;7.99;94.30;98328.47;5071661;28;20031;-79
2022/04/07 07:53:20;;;;;;;5.15;0.73;;;;;;;7.74;93.44;98330.19;5071376;28;20090;-81
2022/04/07 07:55:58;;;;;;;2.88;0.75;;;;;;;7.50;92.61;98338.75;5063755;28;20024;-81
2022/04/07 07:58:25;;;;;;;2.42;0.80;;;;;;;7.31;92.83;98317.22;5067949;28;20051;-79
2022/04/07 08:00:50;;;;;;;1.95;0.80;;;;;;;7.21;93.57;98309.50;5066094;28;20132;-79
2022/04/07 08:03:15;;;;;;;1.92;0.90;;;;;;;7.09;94.37;98305.47;5060519;28;20481;-80
2022/04/07 08:05:41;;;;;;;4.90;1.10;;;;;;;7.03;95.28;98312.13;5071332;28;20539;-80
2022/04/07 08:08:07;;;;;;;3.05;1.00;;;;;;;6.99;94.96;98302.97;5070785;28;20071;-81
2022/04/07 08:10:33;;;;;;;4.38;0.90;;;;;;;6.96;96.14;98302.47;5037086;28;20274;-81
2022/04/07 08:12:58;;;;;;;3.53;0.80;;;;;;;6.90;96.54;98299.50;5071350;28;20070;-80
2022/04/07 08:15:27;;;;;;;2.83;0.77;;;;;;;6.88;97.05;98290.16;5069400;28;20563;-81
2022/04/07 08:17:52;;;;;;;2.75;0.88;;;;;;;6.84;97.03;98292.25;5069772;28;20051;-81
2022/04/07 08:20:18;;;;;;;3.80;1.00;;;;;;;6.83;97.27;98285.41;5069281;28;20055;-80
2022/04/07 08:22:43;;;;;;;5.93;1.05;;;;;;;6.86;97.88;98297.34;5070485;28;20029;-81
2022/04/07 08:25:09;;;;;;;5.70;1.00;;;;;;;6.86;97.86;98292.94;5070536;28;20024;-80
2022/04/07 08:27:39;;;;;;;2.67;0.82;;;;;;;6.84;98.31;98292.25;5070879;28;20107;-79
2022/04/07 08:30:05;;;;;;;4.20;1.00;;;;;;;6.85;98.43;98280.00;5069942;28;20059;-81
2022/04/07 08:32:32;;;;;;;3.65;1.10;;;;;;;6.89;98.60;98278.72;5070244;28;20021;-80
2022/04/07 08:35:11;;;;;;;4.72;1.10;;;;;;;6.94;99.39;98293.94;5070444;28;20027;-81
2022/04/07 08:37:37;;;;;;;3.38;0.98;;;;;;;6.98;100.00;98295.28;5069282;28;20101;-78
2022/04/07 08:40:06;;;;;;;3.95;1.08;;;;;;;7.05;100.00;98286.66;5069788;28;20024;-80
2022/04/07 08:42:40;;;;;;;3.55;1.00;;;;;;;7.11;100.00;98285.22;5053803;28;20024;-82
2022/04/07 08:45:06;;;;;;;2.88;1.13;;;;;;;7.14;100.00;98274.44;5069634;28;20028;-80
2022/04/07 08:47:35;;;;;;;2.90;1.10;;;;;;;7.17;100.00;98269.72;5057318;28;20131;-80
2022/04/07 08:50:12;;;;;;;4.72;1.20;;;;;;;7.23;100.00;98276.97;5054868;28;20496;-80
2022/04/07 08:52:38;;;;;;;6.25;1.50;;;;;;;7.30;100.00;98279.78;5053148;28;20020;-80
2022/04/07 08:55:05;;;;;;;7.35;1.73;;;;;;;7.37;100.00;98280.81;5063221;28;20107;-80
2022/04/07 08:57:32;;;;;;;5.00;1.85;;;;;;;7.47;100.00;98278.06;5069031;28;20032;-80
2022/04/07 08:59:58;;;;;;;6.32;1.88;;;;;;;7.55;100.00;98280.69;5069197;28;20052;-80
2022/04/07 09:02:23;;;;;;;5.93;2.00;;;;;;;7.68;100.00;98270.63;5069691;28;20479;-80
2022/04/07 09:04:58;;;;;;;7.22;2.30;;;;;;;7.81;100.00;98262.31;5068538;28;20056;-81
2022/04/07 09:07:33;;;;;;;7.88;2.28;;;;;;;7.91;100.00;98268.22;5069948;28;20091;-81
2022/04/07 09:10:03;;;;;;;8.02;2.13;;;;;;;7.95;100.00;98261.69;5069610;28;20024;-81
2022/04/07 09:12:28;;;;;;;3.63;2.10;;;;;;;8.10;100.00;98265.34;5051115;28;20036;-79
2022/04/07 09:14:56;;;;;;;6.13;2.03;;;;;;;8.17;100.00;98268.94;5069926;28;20016;-79
2022/04/07 09:17:23;;;;;;;6.30;2.17;;;;;;;8.27;100.00;98278.44;5068900;28;20025;-81
2022/04/07 09:19:52;;;;;;;5.45;2.40;;;;;;;8.31;100.00;98264.06;5053619;28;20056;-81
2022/04/07 09:22:28;;;;;;;7.13;3.00;;;;;;;8.47;100.00;98282.44;5067750;28;20024;-80
2022/04/07 09:24:54;;;;;;;6.15;3.55;;;;;;;8.55;100.00;98271.97;5069283;28;20086;-81
2022/04/07 09:27:19;;;;;;;6.28;3.88;;;;;;;8.66;100.00;98274.25;5068869;28;20040;-81
2022/04/07 09:29:46;;;;;;;8.27;4.60;;;;;;;8.86;100.00;98274.75;5069359;28;20100;-80
2022/04/07 09:32:23;;;;;;;5.63;4.40;;;;;;;8.97;100.00;98282.25;5062679;28;20036;-81
2022/04/07 09:34:53;;;;;;;8.07;5.65;;;;;;;9.15;100.00;98289.91;5048859;28;20400;-82
2022/04/07 09:37:20;;;;;;;7.18;5.50;;;;;;;9.27;100.00;98301.72;5049364;28;20107;-80
2022/04/07 09:39:46;;;;;;;9.50;5.20;;;;;;;9.40;99.96;98299.38;5047321;28;20122;-80
2022/04/07 09:42:23;;;;;;;7.60;4.65;;;;;;;9.48;99.23;98295.09;5049636;28;20116;-82
2022/04/07 09:44:51;;;;;;;5.53;2.72;;;;;;;9.50;92.62;98291.31;5057062;28;20048;-82
2022/04/07 09:47:19;;;;;;;7.43;1.98;;;;;;;9.56;87.83;98292.44;5068915;28;20032;-82
2022/04/07 09:49:44;;;;;;;6.97;2.75;;;;;;;9.59;89.94;98294.72;5052727;28;20182;-83
2022/04/07 09:52:14;;;;;;;5.45;2.50;;;;;;;9.62;88.66;98287.34;5048279;28;20100;-82
2022/04/07 09:54:43;;;;;;;6.38;2.22;;;;;;;9.68;87.60;98289.28;5048798;28;20476;-79
2022/04/07 09:57:10;;;;;;;7.13;2.10;;;;;;;9.75;82.96;98286.78;5048177;28;20028;-81
2022/04/07 09:59:39;;;;;;;6.85;1.95;;;;;;;9.74;82.08;98291.22;5049269;28;20027;-80
2022/04/07 10:02:05;;;;;;;5.20;1.90;;;;;;;9.73;82.54;98275.63;5048636;28;20025;-81
2022/04/07 10:04:38;;;;;;;5.47;2.22;;;;;;;9.77;85.43;98290.06;5049473;28;20087;-82
2022/04/07 10:07:05;;;;;;;;;;;;;;;9.84;87.52;98288.38;5055356;28;20457;-82
2022/04/07 10:09:34;;;;;;;6.97;2.40;;;;;;;9.85;83.44;98297.91;5068656;28;20265;-82
2022/04/07 10:12:03;;;;;;;7.45;2.42;;;;;;;9.81;80.63;98293.97;5054524;28;20556;-83
2022/04/07 10:14:30;;;;;;;4.70;2.17;;;;;;;9.79;78.85;98290.69;5069005;28;20408;-83
2022/04/07 10:16:58;;;;;;;4.80;1.65;;;;;;;9.80;77.07;98294.97;5072595;28;20093;-83
2022/04/07 10:19:37;;;;;;;5.28;1.67;;;;;;;9.95;78.48;98298.50;5073004;28;20108;-83
2022/04/07 10:22:21;;;;;;;7.82;1.60;;;;;;;10.14;76.23;98293.81;5055544;28;20032;-79
2022/04/07 10:24:56;;;;;;;5.25;1.48;;;;;;;10.29;74.92;98298.16;5072469;28;20024;-80
2022/04/07 10:27:25;;;;;;;7.60;1.70;;;;;;;10.46;73.47;98301.53;5073377;28;20032;-80
2022/04/07 10:30:06;;;;;;;5.13;1.25;;;;;;;10.59;74.32;98304.38;5072783;28;20038;-83
2022/04/07 10:32:42;;;;;;;6.43;1.75;;;;;;;10.82;74.60;98307.00;5072963;28;20028;-82
2022/04/07 10:35:10;;;;;;;4.63;1.30;;;;;;;10.96;71.95;98311.47;5073034;28;20488;-83
2022/04/07 10:37:46;;;;;;;6.78;1.35;;;;;;;10.99;70.10;98311.13;5071986;28;20104;-83
2022/04/07 10:40:30;;;;;;;7.15;1.63;;;;;;;11.14;75.26;98329.56;5068254;28;20017;-81
2022/04/07 10:43:21;;;;;;;5.78;1.67;;;;;;;11.22;72.75;98323.41;5071869;28;20330;-81
2022/04/07 10:46:02;;;;;;;9.35;1.60;;;;;;;11.16;68.77;98340.72;5005399;28;20037;-82
2022/04/07 10:48:31;;;;;;;8.10;1.60;;;;;;;11.12;69.02;98352.59;5071340;28;20448;-83
2022/04/07 10:51:10;;;;;;;10.63;2.20;;;;;;;11.04;67.44;98347.41;5071466;28;20093;-80
2022/04/07 10:53:39;;;;;;;14.00;2.00;;;;;;;10.93;67.55;98345.22;5067494;28;20029;-81
2022/04/07 10:56:07;;;;;;;12.50;2.17;;;;;;;10.97;67.21;98349.13;5067336;28;20020;-80
2022/04/07 10:58:55;;;;;;;11.55;1.73;;;;;;;11.06;67.37;98353.31;5071277;28;20107;-84
2022/04/07 11:01:32;;;;;;;10.77;1.90;;;;;;;11.22;68.73;98360.25;5059753;28;20060;-83
2022/04/07 11:07:13;;;;;;;10.95;2.20;;;;;;;11.21;65.24;98379.69;5071890;28;20539;-83
2022/04/07 11:10:03;;;;;;;15.02;1.95;;;;;;;11.21;65.72;98371.78;5071728;28;20307;-84
2022/04/07 11:13:00;;;;;;;10.95;1.90;;;;;;;11.35;67.54;98385.97;5070452;28;20106;-82
2022/04/07 11:15:32;;;;;;;9.20;2.00;;;;;;;11.40;63.99;98394.16;5072271;28;20048;-83
2022/04/07 11:18:25;;;;;;;8.43;1.75;;;;;;;11.51;66.56;98397.16;5071861;28;20048;-83
2022/04/07 11:21:01;;;;;;;;;;;;;;;11.65;68.83;98416.63;5071682;28;20025;-83
2022/04/07 11:23:48;;;;;;;9.50;2.17;;;;;;;11.85;65.74;98406.41;5069488;28;19915;-81
2022/04/07 11:26:28;;;;;;;10.57;1.85;;;;;;;11.89;63.16;98429.56;5061992;28;20028;-81
2022/04/07 11:29:02;;;;;;;11.10;1.88;;;;;;;11.87;63.10;98428.94;5071664;28;20024;-83
2022/04/07 11:31:50;;;;;;;8.38;2.08;;;;;;;11.93;62.93;98427.38;5072175;28;20573;-82
2022/04/07 11:34:38;;;;;;;12.32;1.52;;;;;;;11.90;61.62;98423.28;5069580;28;20187;-82
2022/04/07 11:37:11;;;;;;;13.05;2.50;;;;;;;11.78;60.75;98443.19;5073431;28;20024;-82
2022/04/07 11:39:40;;;;;;;8.60;1.92;;;;;;;11.68;60.50;98436.53;5071553;28;20032;-82
2022/04/07 11:42:08;;;;;;;9.18;2.10;;;;;;;11.65;60.94;98450.88;5069576;28;20094;-83
2022/04/07 11:44:33;;;;;;;10.57;1.88;;;;;;;11.54;58.54;98453.91;5075534;28;20021;-80
2022/04/07 11:47:00;;;;;;;13.00;2.08;;;;;;;11.44;59.32;98453.34;5071137;28;20031;-82
2022/04/07 11:49:38;;;;;;;12.13;2.55;;;;;;;11.49;60.44;98443.09;5071847;28;20013;-82
2022/04/07 11:52:09;;;;;;;11.07;2.55;;;;;;;11.54;60.62;98438.94;5056267;28;20028;-82
2022/04/07 11:54:36;;;;;;;11.95;2.33;;;;;;;11.71;58.76;98463.31;5070879;28;20031;-82
2022/04/07 11:57:08;;;;;;;11.60;2.08;;;;;;;11.80;58.85;98454.38;5055447;28;20072;-82
2022/04/07 11:59:37;;;;;;;9.32;2.30;;;;;;;11.92;58.85;98447.63;5069373;28;20055;-84
2022/04/07 12:02:03;;;;;;;10.20;2.28;;;;;;;12.08;59.07;98466.94;5056330;28;20438;-80
2022/04/07 12:04:31;;;;;;;10.43;1.88;;;;;;;12.01;56.83;98481.81;5042790;28;20112;-81
2022/04/07 12:07:01;;;;;;;9.48;2.05;;;;;;;11.99;56.64;98457.44;5042363;28;20094;-81